createdAt,value
2014-06-19T00:00:32.649Z,47.52
2014-06-19T00:01:37.338Z,47.53
2014-06-19T00:02:42.027Z,47.77
2014-06-19T00:03:46.717Z,47.91
2014-06-19T00:04:51.406Z,47.66
2014-06-19T00:05:56.393Z,48.11
2014-06-19T00:07:01.084Z,47.86
2014-06-19T00:08:05.774Z,47.78
2014-06-19T00:09:10.760Z,48.04
2014-06-19T00:10:15.451Z,48.11
2014-06-19T00:11:20.155Z,47.99
2014-06-19T00:12:25.142Z,48.16
2014-06-19T00:13:29.831Z,48.35
2014-06-19T00:14:34.521Z,48.33
2014-06-19T00:15:39.506Z,48.63
2014-06-19T00:16:44.197Z,48.68
2014-06-19T00:17:48.885Z,48.38
2014-06-19T00:18:53.873Z,48.48
2014-06-19T00:19:58.858Z,48.66
2014-06-19T00:21:03.846Z,48.66
2014-06-19T00:22:08.832Z,48.99
2014-06-19T00:23:13.521Z,48.92
2014-06-19T00:24:18.211Z,48.78
2014-06-19T00:25:22.885Z,48.84
2014-06-19T00:26:27.573Z,49.29
2014-06-19T00:27:32.263Z,49
2014-06-19T00:28:36.952Z,49.91
2014-06-19T00:29:41.939Z,49.63
2014-06-19T00:30:46.628Z,49.28
2014-06-19T00:31:51.318Z,49.75
2014-06-19T00:32:56.304Z,49.75
2014-06-19T00:34:00.996Z,49.65
2014-06-19T00:35:05.982Z,50
2014-06-19T00:36:10.671Z,49.77
2014-06-19T00:37:15.658Z,50.22
2014-06-19T00:38:20.346Z,51.29
2014-06-19T00:39:25.036Z,50.74
2014-06-19T00:40:29.726Z,50.26
2014-06-19T00:41:34.416Z,50.5
2014-06-19T00:42:39.090Z,50.7
2014-06-19T00:43:43.779Z,50.56
2014-06-19T00:44:48.765Z,50.55
2014-06-19T00:45:53.438Z,50.61
2014-06-19T00:46:58.128Z,51.17
2014-06-19T00:48:02.819Z,51.23
2014-06-19T00:49:07.509Z,51.29
2014-06-19T00:50:12.182Z,52.24
2014-06-19T00:51:16.872Z,52.05
2014-06-19T00:52:21.545Z,51.33
2014-06-19T00:53:26.235Z,51.74
2014-06-19T00:54:31.221Z,51.73
2014-06-19T00:55:35.895Z,51.7
2014-06-19T00:56:40.584Z,51.97
2014-06-19T00:57:45.274Z,51.42
2014-06-19T00:58:49.948Z,51.5
2014-06-19T00:59:54.934Z,51.19
2014-06-19T01:00:59.923Z,51.87
2014-06-19T01:02:04.595Z,51.15
2014-06-19T01:03:09.286Z,51.43
2014-06-19T01:04:13.975Z,51.61
2014-06-19T01:05:18.648Z,51.47
2014-06-19T01:06:23.353Z,51.47
2014-06-19T01:07:28.324Z,51.66
2014-06-19T01:08:33.015Z,51.99
2014-06-19T01:09:37.703Z,52.12
2014-06-19T01:10:42.674Z,51.79
2014-06-19T01:11:47.363Z,51.73
2014-06-19T01:12:52.052Z,52.03
2014-06-19T01:13:56.727Z,52.1
2014-06-19T01:15:01.418Z,52.04
2014-06-19T01:16:06.108Z,52.46
2014-06-19T01:17:10.797Z,52.24
2014-06-19T01:18:15.471Z,52.02
2014-06-19T01:19:20.160Z,52.28
2014-06-19T01:20:25.146Z,52.78
2014-06-19T01:21:29.820Z,52.47
2014-06-19T01:22:34.509Z,52.85
2014-06-19T01:23:39.199Z,52.83
2014-06-19T01:24:43.872Z,52.74
2014-06-19T01:25:48.561Z,52.94
2014-06-19T01:26:53.549Z,53.09
2014-06-19T01:27:58.535Z,52.77
2014-06-19T01:29:03.211Z,52.97
2014-06-19T01:30:07.900Z,52.79
2014-06-19T01:31:12.887Z,53.29
2014-06-19T01:32:17.560Z,53.53
2014-06-19T01:33:22.250Z,53.48
2014-06-19T01:34:26.940Z,53.4
2014-06-19T01:35:31.910Z,53.25
2014-06-19T01:36:36.600Z,53.09
2014-06-19T01:37:41.274Z,53.31
2014-06-19T01:38:45.963Z,53.36
2014-06-19T01:39:50.653Z,53.43
2014-06-19T01:40:55.327Z,53.54
2014-06-19T01:42:00.016Z,53.57
2014-06-19T01:43:04.690Z,53.82
2014-06-19T01:44:09.676Z,54.02
2014-06-19T01:45:14.367Z,53.87
2014-06-19T01:46:19.040Z,53.9
2014-06-19T01:47:23.729Z,54.63
2014-06-19T01:48:28.716Z,54.84
2014-06-19T01:49:33.686Z,54.62
2014-06-19T01:50:38.376Z,54.3
2014-06-19T01:51:43.065Z,54.64
2014-06-19T01:52:47.739Z,54.6
2014-06-19T01:53:52.429Z,54.52
2014-06-19T01:54:57.102Z,55.15
2014-06-19T01:56:01.104Z,54.74
2014-06-19T01:57:05.795Z,54.33
2014-06-19T01:58:10.470Z,54.4
2014-06-19T01:59:15.159Z,54.68
2014-06-19T02:00:19.848Z,54.4
2014-06-19T02:01:24.522Z,54.49
2014-06-19T02:02:29.212Z,54.36
2014-06-19T02:03:34.183Z,54.61
2014-06-19T02:04:38.872Z,54.55
2014-06-19T02:05:43.562Z,55.34
2014-06-19T02:06:48.251Z,55.46
2014-06-19T02:07:52.941Z,55.14
2014-06-19T02:08:57.615Z,55.22
2014-06-19T02:10:02.306Z,55.48
2014-06-19T02:11:06.978Z,55.1
2014-06-19T02:12:11.668Z,54.85
2014-06-19T02:13:16.357Z,54.95
2014-06-19T02:14:21.031Z,55.29
2014-06-19T02:15:25.721Z,54.92
2014-06-19T02:16:30.707Z,55.23
2014-06-19T02:17:35.380Z,55.67
2014-06-19T02:18:40.070Z,55.35
2014-06-19T02:19:44.760Z,55.1
2014-06-19T02:20:49.731Z,55.64
2014-06-19T02:21:54.420Z,55.24
2014-06-19T02:22:59.093Z,55.05
2014-06-19T02:24:04.082Z,55.27
2014-06-19T02:25:08.771Z,54.91
2014-06-19T02:26:13.445Z,55.06
2014-06-19T02:27:18.431Z,55.21
2014-06-19T02:28:23.104Z,54.94
2014-06-19T02:29:28.091Z,55.11
2014-06-19T02:30:32.780Z,55.45
2014-06-19T02:31:37.471Z,55.61
2014-06-19T02:32:42.144Z,56.14
2014-06-19T02:33:47.130Z,56.19
2014-06-19T02:34:51.819Z,55.88
2014-06-19T02:35:56.791Z,55.83
2014-06-19T02:37:01.481Z,55.92
2014-06-19T02:38:06.171Z,56.18
2014-06-19T02:39:11.157Z,56.26
2014-06-19T02:40:15.830Z,56.49
2014-06-19T02:41:20.520Z,56.76
2014-06-19T02:42:25.194Z,56.22
2014-06-19T02:43:29.883Z,56.31
2014-06-19T02:44:34.871Z,56.56
2014-06-19T02:45:39.543Z,55.88
2014-06-19T02:46:44.234Z,55.66
2014-06-19T02:47:48.235Z,55.81
2014-06-19T02:48:53.206Z,56.09
2014-06-19T02:49:58.192Z,55.94
2014-06-19T02:51:02.882Z,55.99
2014-06-19T02:52:07.854Z,55.81
2014-06-19T02:53:12.544Z,55.13
2014-06-19T02:54:17.218Z,55.41
2014-06-19T02:55:21.906Z,56.24
2014-06-19T02:56:26.597Z,55.46
2014-06-19T02:57:31.286Z,55.27
2014-06-19T02:58:35.959Z,56.12
2014-06-19T02:59:40.649Z,56.4
2014-06-19T03:00:45.322Z,56.26
2014-06-19T03:01:50.012Z,55.91
2014-06-19T03:02:54.701Z,55.68
2014-06-19T03:03:59.688Z,55.92
2014-06-19T03:05:04.364Z,55.9
2014-06-19T03:06:09.053Z,55.83
2014-06-19T03:07:13.743Z,55.55
2014-06-19T03:08:18.432Z,55.73
2014-06-19T03:09:23.402Z,56.09
2014-06-19T03:10:28.091Z,55.65
2014-06-19T03:11:32.781Z,56.02
2014-06-19T03:12:37.768Z,55.75
2014-06-19T03:13:42.457Z,55.29
2014-06-19T03:14:47.146Z,55.98
2014-06-19T03:15:51.820Z,55.91
2014-06-19T03:16:56.510Z,55.53
2014-06-19T03:18:01.496Z,55.69
2014-06-19T03:19:06.188Z,55.6
2014-06-19T03:20:10.877Z,56.1
2014-06-19T03:21:15.567Z,55.89
2014-06-19T03:22:20.537Z,56.27
2014-06-19T03:23:25.227Z,55.96
2014-06-19T03:24:29.915Z,56.39
2014-06-19T03:25:34.902Z,56.78
2014-06-19T03:26:39.591Z,57.56
2014-06-19T03:27:44.265Z,57.64
2014-06-19T03:28:49.253Z,58.17
2014-06-19T03:29:53.942Z,57.93
2014-06-19T03:30:58.928Z,58.41
2014-06-19T03:32:03.619Z,57.3
2014-06-19T03:33:08.589Z,57.37
2014-06-19T03:34:13.575Z,57.47
2014-06-19T03:35:18.562Z,57.49
2014-06-19T03:36:23.549Z,57.92
2014-06-19T03:37:27.551Z,58.09
2014-06-19T03:38:32.224Z,57.55
2014-06-19T03:39:36.913Z,56.77
2014-06-19T03:40:41.899Z,57.38
2014-06-19T03:41:46.886Z,57.55
2014-06-19T03:42:51.575Z,57.34
2014-06-19T03:43:56.265Z,58.2
2014-06-19T03:45:00.954Z,58.16
2014-06-19T03:46:05.942Z,58.18
2014-06-19T03:47:10.631Z,58.06
2014-06-19T03:48:15.321Z,57.8
2014-06-19T03:49:20.010Z,57.41
2014-06-19T03:50:24.981Z,57.38
2014-06-19T03:51:29.670Z,57.61
2014-06-19T03:52:34.360Z,57.47
2014-06-19T03:53:39.049Z,56.66
2014-06-19T03:54:44.036Z,56.18
2014-06-19T03:55:48.724Z,56.59
2014-06-19T03:56:53.398Z,56.62
2014-06-19T03:57:58.089Z,56.51
2014-06-19T03:59:03.059Z,56.56
2014-06-19T04:00:07.751Z,56.87
2014-06-19T04:01:12.439Z,56.79
2014-06-19T04:02:17.114Z,56.94
2014-06-19T04:03:21.804Z,56.55
2014-06-19T04:04:26.477Z,56.85
2014-06-19T04:05:31.166Z,56.68
2014-06-19T04:06:36.153Z,57.48
2014-06-19T04:07:40.826Z,57.3
2014-06-19T04:08:45.516Z,56.23
2014-06-19T04:09:50.205Z,56.37
2014-06-19T04:10:54.878Z,55.88
2014-06-19T04:11:59.866Z,55.66
2014-06-19T04:13:04.555Z,56.03
2014-06-19T04:14:09.230Z,56.76
2014-06-19T04:15:14.216Z,57.3
2014-06-19T04:16:18.890Z,57.09
2014-06-19T04:17:23.581Z,56.7
2014-06-19T04:18:28.566Z,56.49
2014-06-19T04:19:33.553Z,56.24
2014-06-19T04:20:38.226Z,55.9
2014-06-19T04:21:42.916Z,55.65
2014-06-19T04:22:47.605Z,55.39
2014-06-19T04:23:52.279Z,55.61
2014-06-19T04:24:56.984Z,55.76
2014-06-19T04:26:01.673Z,55.7
2014-06-19T04:27:06.349Z,56.06
2014-06-19T04:28:11.336Z,55.84
2014-06-19T04:29:16.322Z,55.92
2014-06-19T04:30:21.011Z,55.44
2014-06-19T04:31:25.685Z,55.91
2014-06-19T04:32:30.374Z,55.18
2014-06-19T04:33:35.064Z,55.71
2014-06-19T04:34:39.738Z,55.69
2014-06-19T04:35:44.427Z,55.93
2014-06-19T04:36:49.117Z,56.49
2014-06-19T04:37:53.791Z,56.53
2014-06-19T04:38:58.777Z,56.65
2014-06-19T04:40:03.466Z,56.15
2014-06-19T04:41:08.141Z,56.13
2014-06-19T04:42:13.128Z,55.79
2014-06-19T04:43:17.802Z,56.15
2014-06-19T04:44:22.491Z,56.13
2014-06-19T04:45:27.478Z,56.01
2014-06-19T04:46:32.151Z,55.67
2014-06-19T04:47:36.840Z,55.99
2014-06-19T04:48:41.827Z,56.43
2014-06-19T04:49:46.500Z,55.75
2014-06-19T04:50:51.191Z,55.39
2014-06-19T04:51:55.880Z,54.91
2014-06-19T04:53:00.866Z,55.33
2014-06-19T04:54:05.539Z,55.21
2014-06-19T04:55:10.231Z,54.35
2014-06-19T04:56:14.920Z,54.66
2014-06-19T04:57:19.594Z,54.25
2014-06-19T04:58:24.284Z,53.71
2014-06-19T04:59:28.957Z,53.8
2014-06-19T05:00:33.647Z,53.8
2014-06-19T05:01:38.321Z,54.13
2014-06-19T05:02:43.011Z,53.91
2014-06-19T05:03:47.700Z,53.98
2014-06-19T05:04:52.390Z,54.35
2014-06-19T05:05:57.062Z,54.57
2014-06-19T05:07:01.064Z,54.84
2014-06-19T05:08:05.754Z,55.42
2014-06-19T05:09:10.430Z,56.01
2014-06-19T05:10:15.416Z,56.1
2014-06-19T05:11:20.090Z,55.28
2014-06-19T05:12:24.780Z,55.67
2014-06-19T05:13:29.766Z,55.68
2014-06-19T05:14:34.454Z,55.49
2014-06-19T05:15:39.425Z,55.25
2014-06-19T05:16:44.116Z,55.27
2014-06-19T05:17:48.804Z,55.19
2014-06-19T05:18:53.478Z,54.88
2014-06-19T05:19:58.169Z,54.7
2014-06-19T05:21:03.154Z,54.96
2014-06-19T05:22:08.142Z,54.22
2014-06-19T05:23:12.129Z,53.61
2014-06-19T05:24:17.115Z,53.25
2014-06-19T05:25:21.805Z,52.7
2014-06-19T05:26:26.478Z,52.47
2014-06-19T05:27:31.465Z,52.13
2014-06-19T05:28:36.154Z,52.13
2014-06-19T05:29:40.827Z,52.03
2014-06-19T05:30:45.518Z,52.22
2014-06-19T05:31:50.207Z,51.67
2014-06-19T05:32:54.881Z,50.57
2014-06-19T05:33:59.867Z,50.56
2014-06-19T05:35:04.556Z,50.82
2014-06-19T05:36:09.245Z,50.43
2014-06-19T05:37:13.921Z,50.27
2014-06-19T05:38:18.611Z,50.4
2014-06-19T05:39:23.596Z,51.5
2014-06-19T05:40:28.271Z,51.27
2014-06-19T05:41:32.961Z,51.54
2014-06-19T05:42:37.650Z,52.11
2014-06-19T05:43:42.636Z,52.37
2014-06-19T05:44:47.309Z,52.09
2014-06-19T05:45:52.000Z,52.45
2014-06-19T05:46:56.986Z,51.9
2014-06-19T05:48:01.675Z,51.25
2014-06-19T05:49:06.661Z,51.03
2014-06-19T05:50:11.353Z,50.75
2014-06-19T05:51:16.042Z,50.7
2014-06-19T05:52:20.716Z,49.91
2014-06-19T05:53:25.405Z,49.41
2014-06-19T05:54:30.391Z,49.28
2014-06-19T05:55:35.096Z,49.29
2014-06-19T05:56:39.786Z,49.23
2014-06-19T05:57:44.476Z,48.83
2014-06-19T05:58:49.164Z,49.16
2014-06-19T05:59:53.856Z,48.94
2014-06-19T06:00:58.544Z,48.57
2014-06-19T06:02:03.235Z,48.04
2014-06-19T06:03:07.923Z,47.33
2014-06-19T06:04:12.614Z,46.87
2014-06-19T06:05:17.303Z,46.73
2014-06-19T06:06:21.993Z,46.8
2014-06-19T06:07:26.978Z,46.16
2014-06-19T06:08:31.668Z,45.94
2014-06-19T06:09:36.358Z,45.52
2014-06-19T06:10:41.047Z,44.05
2014-06-19T06:11:45.736Z,41.93
2014-06-19T06:12:50.426Z,40.39
2014-06-19T06:13:55.115Z,38.06
2014-06-19T06:14:59.805Z,36.18
2014-06-19T06:16:04.494Z,33.82
2014-06-19T06:17:09.481Z,32.76
2014-06-19T06:18:14.171Z,32.88
2014-06-19T06:19:18.861Z,32.4
2014-06-19T06:20:23.550Z,32.55
2014-06-19T06:21:28.538Z,31.2
2014-06-19T06:22:33.227Z,29.6
2014-06-19T06:23:38.212Z,29.92
2014-06-19T06:24:43.200Z,28.48
2014-06-19T06:25:47.889Z,28.62
2014-06-19T06:26:52.187Z,28.26
2014-06-19T06:27:56.892Z,28.07
2014-06-19T06:29:01.624Z,27.62
2014-06-19T06:30:06.355Z,27.02
2014-06-19T06:31:11.085Z,26.85
2014-06-19T06:32:15.877Z,26.92
2014-06-19T06:33:20.589Z,27.61
2014-06-19T06:34:25.309Z,27.15
2014-06-19T06:35:30.013Z,28.49
2014-06-19T06:36:35.014Z,31.94
2014-06-19T06:37:40.030Z,34.39
2014-06-19T06:38:44.728Z,36.49
2014-06-19T06:39:49.736Z,36.7
2014-06-19T06:40:54.431Z,38.21
2014-06-19T06:41:59.132Z,38.06
2014-06-19T06:43:03.840Z,39.19
2014-06-19T06:44:08.532Z,40.34
2014-06-19T06:45:13.224Z,40.9
2014-06-19T06:46:17.915Z,41.48
2014-06-19T06:47:22.903Z,41.78
2014-06-19T06:48:27.594Z,42.12
2014-06-19T06:49:32.580Z,42.06
2014-06-19T06:50:37.568Z,42.88
2014-06-19T06:51:42.257Z,43.04
2014-06-19T06:52:46.949Z,42.95
2014-06-19T06:53:51.638Z,42.6
2014-06-19T06:54:56.328Z,42.52
2014-06-19T06:56:01.017Z,43.62
2014-06-19T06:57:05.989Z,43.07
2014-06-19T06:58:10.679Z,43.05
2014-06-19T06:59:15.370Z,43.8
2014-06-19T07:00:20.060Z,42.98
2014-06-19T07:01:24.780Z,42.87
2014-06-19T07:02:29.767Z,42.83
2014-06-19T07:03:34.456Z,42.67
2014-06-19T07:04:39.146Z,43.35
2014-06-19T07:05:43.819Z,42.35
2014-06-19T07:06:48.508Z,42.41
2014-06-19T07:07:53.199Z,42.78
2014-06-19T07:08:57.887Z,43.08
2014-06-19T07:10:02.873Z,43.1
2014-06-19T07:11:07.563Z,43.26
2014-06-19T07:12:12.237Z,43.27
2014-06-19T07:13:16.927Z,43.74
2014-06-19T07:14:21.618Z,43.1
2014-06-19T07:15:26.307Z,42.95
2014-06-19T07:16:31.294Z,42.98
2014-06-19T07:17:35.983Z,42.99
2014-06-19T07:18:40.672Z,43
2014-06-19T07:19:45.644Z,43.13
2014-06-19T07:20:50.630Z,43.59
2014-06-19T07:21:55.320Z,43.51
2014-06-19T07:23:00.024Z,42.64
2014-06-19T07:24:04.699Z,42.39
2014-06-19T07:25:09.685Z,42.74
2014-06-19T07:26:14.375Z,43.45
2014-06-19T07:27:19.065Z,44.11
2014-06-19T07:28:23.753Z,43.47
2014-06-19T07:29:28.428Z,43.49
2014-06-19T07:30:33.414Z,44.01
2014-06-19T07:31:37.416Z,43.52
2014-06-19T07:32:42.403Z,41.75
2014-06-19T07:33:47.091Z,41
2014-06-19T07:34:51.781Z,40.89
2014-06-19T07:35:56.455Z,40.47
2014-06-19T07:37:01.144Z,40.99
2014-06-19T07:38:05.834Z,41.11
2014-06-19T07:39:10.523Z,40.24
2014-06-19T07:40:15.215Z,41.08
2014-06-19T07:41:19.903Z,40.98
2014-06-19T07:42:24.593Z,39.96
2014-06-19T07:43:29.283Z,39.73
2014-06-19T07:44:33.972Z,40.04
2014-06-19T07:45:38.661Z,40.43
2014-06-19T07:46:42.663Z,40.62
2014-06-19T07:47:47.353Z,41.01
2014-06-19T07:48:52.042Z,41.25
2014-06-19T07:49:57.029Z,42
2014-06-19T07:51:01.702Z,42.21
2014-06-19T07:52:06.392Z,41.7
2014-06-19T07:53:11.081Z,41.88
2014-06-19T07:54:15.772Z,41.2
2014-06-19T07:55:20.461Z,41.19
2014-06-19T07:56:25.151Z,41.02
2014-06-19T07:57:30.137Z,41.61
2014-06-19T07:58:34.812Z,41.03
2014-06-19T07:59:39.501Z,40.73
2014-06-19T08:00:44.190Z,41.26
2014-06-19T08:01:49.177Z,41.52
2014-06-19T08:02:53.866Z,41.36
2014-06-19T08:03:58.555Z,41.17
2014-06-19T08:05:03.244Z,42.2
2014-06-19T08:06:08.230Z,41.89
2014-06-19T08:07:12.921Z,41.03
2014-06-19T08:08:17.612Z,41.95
2014-06-19T08:09:22.301Z,42.28
2014-06-19T08:10:26.990Z,43.29
2014-06-19T08:11:31.680Z,42.7
2014-06-19T08:12:36.354Z,42.99
2014-06-19T08:13:41.043Z,43.71
2014-06-19T08:14:46.030Z,41.93
2014-06-19T08:15:50.719Z,42.07
2014-06-19T08:16:55.705Z,41.86
2014-06-19T08:18:00.395Z,42.51
2014-06-19T08:19:05.069Z,42.34
2014-06-19T08:20:09.757Z,41.56
2014-06-19T08:21:14.448Z,42.24
2014-06-19T08:22:19.138Z,42.5
2014-06-19T08:23:24.126Z,41.58
2014-06-19T08:24:28.814Z,42.08
2014-06-19T08:25:33.504Z,41.08
2014-06-19T08:26:38.178Z,40.46
2014-06-19T08:27:42.867Z,40.62
2014-06-19T08:28:46.885Z,41.52
2014-06-19T08:29:51.574Z,41.89
2014-06-19T08:30:56.264Z,41.42
2014-06-19T08:32:00.953Z,41.75
2014-06-19T08:33:05.643Z,41.47
2014-06-19T08:34:10.629Z,41.23
2014-06-19T08:35:15.319Z,40.68
2014-06-19T08:36:20.009Z,39.89
2014-06-19T08:37:24.996Z,39.66
2014-06-19T08:38:29.685Z,39.82
2014-06-19T08:39:33.687Z,40.88
2014-06-19T08:40:38.377Z,39.77
2014-06-19T08:41:43.363Z,41.31
2014-06-19T08:42:48.052Z,41.7
2014-06-19T08:43:52.742Z,41.12
2014-06-19T08:44:57.416Z,41.26
2014-06-19T08:46:02.105Z,40.74
2014-06-19T08:47:07.091Z,40.33
2014-06-19T08:48:11.780Z,40.91
2014-06-19T08:49:16.472Z,40.8
2014-06-19T08:50:21.162Z,40.48
2014-06-19T08:51:26.149Z,40.71
2014-06-19T08:52:30.853Z,41.63
2014-06-19T08:53:38.870Z,41.65
2014-06-19T08:54:43.560Z,41.2
2014-06-19T08:55:48.249Z,40.82
2014-06-19T08:56:53.235Z,41.08
2014-06-19T08:57:57.925Z,43.34
2014-06-19T08:59:02.598Z,41.81
2014-06-19T09:00:07.303Z,43.06
2014-06-19T09:01:11.994Z,42.19
2014-06-19T09:02:16.981Z,41.84
2014-06-19T09:03:21.967Z,41.69
2014-06-19T09:04:26.657Z,41.34
2014-06-19T09:05:31.628Z,41
2014-06-19T09:06:36.317Z,41.18
2014-06-19T09:07:41.007Z,41.1
2014-06-19T09:08:45.697Z,41.08
2014-06-19T09:09:50.387Z,40.87
2014-06-19T09:10:55.373Z,40.78
2014-06-19T09:12:00.063Z,40.24
2014-06-19T09:13:04.768Z,41.5
2014-06-19T09:14:09.457Z,41.74
2014-06-19T09:15:14.131Z,41.87
2014-06-19T09:16:19.118Z,41.34
2014-06-19T09:17:23.808Z,40.75
2014-06-19T09:18:28.496Z,40.3
2014-06-19T09:19:33.483Z,41.34
2014-06-19T09:20:38.172Z,41.87
2014-06-19T09:21:42.862Z,39.73
2014-06-19T09:22:47.551Z,39.58
2014-06-19T09:23:52.240Z,39.7
2014-06-19T09:24:56.915Z,40.41
2014-06-19T09:26:01.902Z,40.59
2014-06-19T09:27:06.904Z,40.47
2014-06-19T09:28:11.594Z,39.86
2014-06-19T09:29:16.283Z,39.8
2014-06-19T09:30:20.973Z,39.1
2014-06-19T09:31:25.662Z,39.88
2014-06-19T09:32:30.352Z,40.49
2014-06-19T09:33:35.041Z,39.97
2014-06-19T09:34:39.731Z,39.8
2014-06-19T09:35:44.420Z,39.54
2014-06-19T09:36:49.406Z,39.83
2014-06-19T09:37:54.095Z,40.12
2014-06-19T09:38:58.785Z,39.87
2014-06-19T09:40:03.459Z,40.56
2014-06-19T09:41:08.148Z,40.85
2014-06-19T09:42:13.134Z,40.02
2014-06-19T09:43:17.824Z,40.77
2014-06-19T09:44:22.515Z,40.06
2014-06-19T09:45:27.205Z,39.07
2014-06-19T09:46:31.894Z,40.26
2014-06-19T09:47:36.584Z,41.1
2014-06-19T09:48:41.273Z,40
2014-06-19T09:49:45.947Z,39.41
2014-06-19T09:50:50.933Z,39.78
2014-06-19T09:51:55.622Z,40.3
2014-06-19T09:52:59.624Z,39.89
2014-06-19T09:54:04.313Z,39.83
2014-06-19T09:55:09.003Z,40.2
2014-06-19T09:56:13.692Z,39.56
2014-06-19T09:57:18.382Z,39.25
2014-06-19T09:58:23.073Z,39.08
2014-06-19T09:59:27.762Z,39.51
2014-06-19T10:00:32.452Z,39.96
2014-06-19T10:01:37.439Z,39.77
2014-06-19T10:02:42.424Z,39.45
2014-06-19T10:03:47.129Z,39.02
2014-06-19T10:04:51.819Z,39.6
2014-06-19T10:05:56.790Z,39.84
2014-06-19T10:07:01.495Z,39.8
2014-06-19T10:08:06.465Z,39.96
2014-06-19T10:09:11.155Z,39.03
2014-06-19T10:10:15.860Z,39.56
2014-06-19T10:11:20.552Z,39.18
2014-06-19T10:12:25.241Z,39.12
2014-06-19T10:13:29.946Z,39.88
2014-06-19T10:14:34.636Z,39.49
2014-06-19T10:15:39.621Z,39.48
2014-06-19T10:16:44.311Z,39.53
2014-06-19T10:17:49.001Z,39.34
2014-06-19T10:18:53.690Z,40.1
2014-06-19T10:19:58.380Z,38.59
2014-06-19T10:21:03.070Z,39.25
2014-06-19T10:22:08.055Z,39.09
2014-06-19T10:23:12.760Z,38.8
2014-06-19T10:24:17.450Z,39.14
2014-06-19T10:25:22.140Z,38.53
2014-06-19T10:26:26.830Z,37.13
2014-06-19T10:27:31.536Z,37.08
2014-06-19T10:28:36.224Z,37.27
2014-06-19T10:29:40.914Z,37.76
2014-06-19T10:30:45.604Z,37.1
2014-06-19T10:31:50.293Z,37.5
2014-06-19T10:32:55.279Z,37.28
2014-06-19T10:33:59.969Z,36.99
2014-06-19T10:35:04.658Z,38.72
2014-06-19T10:36:09.363Z,37.94
2014-06-19T10:37:14.053Z,38.7
2014-06-19T10:38:18.742Z,37.54
2014-06-19T10:39:23.449Z,36.88
2014-06-19T10:40:28.435Z,37.07
2014-06-19T10:41:33.421Z,37.27
2014-06-19T10:42:38.126Z,37.75
2014-06-19T10:43:42.816Z,37.35
2014-06-19T10:44:47.505Z,36.75
2014-06-19T10:45:52.492Z,36.87
2014-06-19T10:46:57.197Z,37.32
2014-06-19T10:48:01.886Z,36.91
2014-06-19T10:49:06.576Z,36.41
2014-06-19T10:50:11.265Z,36.95
2014-06-19T10:51:15.970Z,36.66
2014-06-19T10:52:20.660Z,36.15
2014-06-19T10:53:25.350Z,36.23
2014-06-19T10:54:30.040Z,36.65
2014-06-19T10:55:34.730Z,36.32
2014-06-19T10:56:39.419Z,36.12
2014-06-19T10:57:44.108Z,35.91
2014-06-19T10:58:48.798Z,35.66
2014-06-19T10:59:53.487Z,35.48
2014-06-19T11:00:58.474Z,36.63
2014-06-19T11:02:03.164Z,36.68
2014-06-19T11:03:07.854Z,36.94
2014-06-19T11:04:12.544Z,36.06
2014-06-19T11:05:17.233Z,35.42
2014-06-19T11:06:21.923Z,35.79
2014-06-19T11:07:26.612Z,36.32
2014-06-19T11:08:31.302Z,37.15
2014-06-19T11:09:35.991Z,37.94
2014-06-19T11:10:40.680Z,38.87
2014-06-19T11:11:45.370Z,37.7
2014-06-19T11:12:50.059Z,36.9
2014-06-19T11:13:54.749Z,36.56
2014-06-19T11:14:59.438Z,37.22
2014-06-19T11:16:04.128Z,37.54
2014-06-19T11:17:08.817Z,37.41
2014-06-19T11:18:13.507Z,37.53
2014-06-19T11:19:18.509Z,36.92
2014-06-19T11:20:23.198Z,37.32
2014-06-19T11:21:27.888Z,36.9
2014-06-19T11:22:31.892Z,36.54
2014-06-19T11:23:36.581Z,35.85
2014-06-19T11:24:41.567Z,36.32
2014-06-19T11:25:46.256Z,36.74
2014-06-19T11:26:50.946Z,36.3
2014-06-19T11:27:55.932Z,36.97
2014-06-19T11:29:00.621Z,36.65
2014-06-19T11:30:05.311Z,36.88
2014-06-19T11:31:10.000Z,36.05
2014-06-19T11:32:14.690Z,36.46
2014-06-19T11:33:19.378Z,35.39
2014-06-19T11:34:24.052Z,35.55
2014-06-19T11:35:28.757Z,35.25
2014-06-19T11:36:33.449Z,35.22
2014-06-19T11:37:38.139Z,35.7
2014-06-19T11:38:42.828Z,36.57
2014-06-19T11:39:46.830Z,36.31
2014-06-19T11:40:51.519Z,35.53
2014-06-19T11:41:56.208Z,35.22
2014-06-19T11:43:00.897Z,35.49
2014-06-19T11:44:05.588Z,35.14
2014-06-19T11:45:10.277Z,35.6
2014-06-19T11:46:14.966Z,35.47
2014-06-19T11:47:19.655Z,35.7
2014-06-19T11:48:24.347Z,35.76
2014-06-19T11:49:29.036Z,35.82
2014-06-19T11:50:33.726Z,35.96
2014-06-19T11:51:38.415Z,35.69
2014-06-19T11:52:43.121Z,35.65
2014-06-19T11:53:47.810Z,35.61
2014-06-19T11:54:52.500Z,35.9
2014-06-19T11:55:57.189Z,35.39
2014-06-19T11:57:01.879Z,35.18
2014-06-19T11:58:06.568Z,35.96
2014-06-19T11:59:11.257Z,35.69
2014-06-19T12:00:15.946Z,37.51
2014-06-19T12:01:20.636Z,36.44
2014-06-19T12:02:25.921Z,36.67
2014-06-19T12:03:30.610Z,36.78
2014-06-19T12:04:35.300Z,36.42
2014-06-19T12:05:39.989Z,36.46
2014-06-19T12:06:43.991Z,37.22
2014-06-19T12:07:48.681Z,36.76
2014-06-19T12:08:53.370Z,37.51
2014-06-19T12:09:58.059Z,37.12
2014-06-19T12:11:02.749Z,37.28
2014-06-19T12:12:07.439Z,36.99
2014-06-19T12:13:12.127Z,37.35
2014-06-19T12:14:17.114Z,37.06
2014-06-19T12:15:21.803Z,36.96
2014-06-19T12:16:26.510Z,35.91
2014-06-19T12:17:31.200Z,35.17
2014-06-19T12:18:35.889Z,35.19
2014-06-19T12:19:40.579Z,35.47
2014-06-19T12:20:44.581Z,36.33
2014-06-19T12:21:49.269Z,35.93
2014-06-19T12:22:53.959Z,35.65
2014-06-19T12:23:58.961Z,35.49
2014-06-19T12:25:03.636Z,35.84
2014-06-19T12:26:08.324Z,36.22
2014-06-19T12:27:13.014Z,36.33
2014-06-19T12:28:17.703Z,36.7
2014-06-19T12:29:22.690Z,36.04
2014-06-19T12:30:27.381Z,36.5
2014-06-19T12:31:32.071Z,36.61
2014-06-19T12:32:36.760Z,36.26
2014-06-19T12:33:41.450Z,35.21
2014-06-19T12:34:46.138Z,36.62
2014-06-19T12:35:51.124Z,36.08
2014-06-19T12:36:56.111Z,35.56
2014-06-19T12:38:00.801Z,37.69
2014-06-19T12:39:05.491Z,35.75
2014-06-19T12:40:10.179Z,36.29
2014-06-19T12:41:14.869Z,36.14
2014-06-19T12:42:19.855Z,35.74
2014-06-19T12:43:24.545Z,35.84
2014-06-19T12:44:29.236Z,36.53
2014-06-19T12:45:33.926Z,35.91
2014-06-19T12:46:38.614Z,36.11
2014-06-19T12:47:43.305Z,35.83
2014-06-19T12:48:47.994Z,36.06
2014-06-19T12:49:52.683Z,35.99
2014-06-19T12:50:57.372Z,36.46
2014-06-19T12:52:02.062Z,36
2014-06-19T12:53:06.736Z,35.49
2014-06-19T12:54:11.425Z,35.91
2014-06-19T12:55:16.411Z,35.88
2014-06-19T12:56:21.101Z,36.46
2014-06-19T12:57:25.792Z,35.91
2014-06-19T12:58:30.482Z,36.6
2014-06-19T12:59:35.468Z,36.15
2014-06-19T13:00:40.158Z,35.64
2014-06-19T13:01:44.846Z,36.42
2014-06-19T13:02:49.834Z,37.17
2014-06-19T13:03:54.522Z,36.8
2014-06-19T13:04:59.212Z,36.77
2014-06-19T13:06:03.886Z,36.57
2014-06-19T13:07:08.575Z,35.18
2014-06-19T13:08:13.561Z,35.39
2014-06-19T13:09:18.548Z,35.97
2014-06-19T13:10:23.237Z,35.83
2014-06-19T13:11:27.944Z,36.17
2014-06-19T13:12:32.930Z,36.06
2014-06-19T13:13:37.620Z,35.32
2014-06-19T13:14:42.310Z,35.16
2014-06-19T13:15:46.998Z,35.59
2014-06-19T13:16:51.688Z,35.38
2014-06-19T13:17:56.377Z,35.79
2014-06-19T13:19:01.067Z,35.9
2014-06-19T13:20:06.053Z,36.32
2014-06-19T13:21:10.743Z,36.68
2014-06-19T13:22:15.728Z,36.03
2014-06-19T13:23:20.418Z,36.52
2014-06-19T13:24:25.108Z,36.59
2014-06-19T13:25:29.799Z,35.99
2014-06-19T13:26:34.489Z,36.08
2014-06-19T13:27:39.179Z,36.42
2014-06-19T13:28:44.164Z,36.5
2014-06-19T13:29:48.853Z,36.15
2014-06-19T13:30:53.543Z,35.94
2014-06-19T13:31:58.232Z,36.29
2014-06-19T13:33:02.922Z,36.01
2014-06-19T13:34:07.611Z,36.48
2014-06-19T13:35:12.301Z,36.43
2014-06-19T13:36:16.990Z,35.6
2014-06-19T13:37:21.696Z,36.04
2014-06-19T13:38:26.385Z,35.84
2014-06-19T13:39:31.077Z,36.04
2014-06-19T13:40:35.765Z,35.67
2014-06-19T13:41:40.470Z,36.2
2014-06-19T13:42:45.457Z,36.27
2014-06-19T13:43:50.146Z,36.4
2014-06-19T13:44:54.837Z,36.64
2014-06-19T13:45:59.823Z,36.11
2014-06-19T13:47:04.512Z,36.66
2014-06-19T13:48:09.202Z,36.66
2014-06-19T13:49:13.907Z,35.87
2014-06-19T13:50:18.597Z,36.7
2014-06-19T13:51:23.287Z,35.89
2014-06-19T13:52:27.976Z,36.02
2014-06-19T13:53:32.666Z,36.26
2014-06-19T13:54:37.356Z,36.74
2014-06-19T13:55:42.044Z,37.07
2014-06-19T13:56:46.734Z,35.94
2014-06-19T13:57:51.423Z,35.76